createdAt,value
2018-11-05T00:00:09.470Z,140
2018-11-05T00:00:21.940Z,140
2018-11-05T00:00:34.602Z,149
2018-11-05T00:00:47.114Z,149
2018-11-05T00:00:59.589Z,148
2018-11-05T00:01:12.074Z,148
2018-11-05T00:01:24.578Z,148
2018-11-05T00:01:37.106Z,145
2018-11-05T00:01:49.576Z,127
2018-11-05T00:02:02.207Z,99
2018-11-05T00:02:14.680Z,94
2018-11-05T00:02:27.140Z,101
2018-11-05T00:02:39.627Z,97
2018-11-05T00:02:52.097Z,97
2018-11-05T00:03:04.538Z,149
2018-11-05T00:03:16.944Z,149
2018-11-05T00:03:29.406Z,149
2018-11-05T00:03:41.837Z,139
2018-11-05T00:03:54.259Z,140
2018-11-05T00:04:06.836Z,140
2018-11-05T00:04:19.357Z,140
2018-11-05T00:04:31.833Z,140
2018-11-05T00:04:44.392Z,147
2018-11-05T00:04:56.823Z,148
2018-11-05T00:05:09.271Z,149
2018-11-05T00:05:21.740Z,107
2018-11-05T00:05:34.185Z,151
2018-11-05T00:05:46.755Z,151
2018-11-05T00:05:59.221Z,141
2018-11-05T00:06:11.703Z,130
2018-11-05T00:06:24.118Z,100
2018-11-05T00:06:36.532Z,95
2018-11-05T00:06:48.938Z,85
2018-11-05T00:07:01.347Z,113
2018-11-05T00:07:13.899Z,105
2018-11-05T00:07:26.363Z,117
2018-11-05T00:07:38.823Z,117
2018-11-05T00:07:51.238Z,125
2018-11-05T00:08:03.649Z,132
2018-11-05T00:08:16.468Z,103
2018-11-05T00:08:28.920Z,103
2018-11-05T00:08:41.414Z,144
2018-11-05T00:08:53.830Z,130
2018-11-05T00:09:06.496Z,130
2018-11-05T00:09:18.922Z,152
2018-11-05T00:09:31.360Z,130
2018-11-05T00:09:43.815Z,151
2018-11-05T00:09:56.328Z,157
2018-11-05T00:10:08.791Z,152
2018-11-05T00:10:21.249Z,152
2018-11-05T00:10:33.703Z,144
2018-11-05T00:10:46.177Z,138
2018-11-05T00:10:58.691Z,146
2018-11-05T00:11:11.145Z,146
2018-11-05T00:11:23.549Z,136
2018-11-05T00:11:35.967Z,136
2018-11-05T00:11:48.465Z,136
2018-11-05T00:12:00.975Z,148
2018-11-05T00:12:13.416Z,148
2018-11-05T00:12:25.806Z,148
2018-11-05T00:12:38.229Z,148
2018-11-05T00:12:50.645Z,148
2018-11-05T00:13:03.046Z,148
2018-11-05T00:13:15.557Z,147
2018-11-05T00:13:28.045Z,148
2018-11-05T00:13:40.530Z,148
2018-11-05T00:13:52.987Z,148
2018-11-05T00:14:05.620Z,148
2018-11-05T00:14:18.016Z,147
2018-11-05T00:14:30.470Z,147
2018-11-05T00:14:42.923Z,147
2018-11-05T00:14:55.354Z,135
2018-11-05T00:15:07.779Z,119
2018-11-05T00:15:20.346Z,130
2018-11-05T00:15:32.778Z,121
2018-11-05T00:15:45.265Z,120
2018-11-05T00:15:57.656Z,92
2018-11-05T00:16:10.322Z,48
2018-11-05T00:16:22.707Z,48
2018-11-05T00:16:35.159Z,41
2018-11-05T00:16:47.635Z,149
2018-11-05T00:17:00.092Z,148
2018-11-05T00:17:12.598Z,136
2018-11-05T00:17:25.058Z,138
2018-11-05T00:17:37.475Z,138
2018-11-05T00:17:49.887Z,138
2018-11-05T00:18:02.289Z,134
2018-11-05T00:18:14.973Z,137
2018-11-05T00:18:27.426Z,140
2018-11-05T00:18:39.875Z,130
2018-11-05T00:18:52.357Z,109
2018-11-05T00:19:04.827Z,138
2018-11-05T00:19:17.235Z,102
2018-11-05T00:19:29.653Z,91
2018-11-05T00:19:42.133Z,91
2018-11-05T00:19:54.618Z,91
2018-11-05T00:20:07.062Z,91
2018-11-05T00:20:19.464Z,91
2018-11-05T00:20:31.873Z,91
2018-11-05T00:20:44.273Z,91
2018-11-05T00:20:56.669Z,91
2018-11-05T00:21:09.130Z,91
2018-11-05T00:21:21.599Z,91
2018-11-05T00:21:34.003Z,91
2018-11-05T00:21:46.467Z,91
2018-11-05T00:21:58.941Z,91
2018-11-05T00:22:11.621Z,91
2018-11-05T00:22:24.089Z,91
2018-11-05T00:22:36.598Z,91
2018-11-05T00:22:49.056Z,91
2018-11-05T00:23:01.674Z,91
2018-11-05T00:23:14.183Z,91
2018-11-05T00:23:26.597Z,146
2018-11-05T00:23:38.994Z,146
2018-11-05T00:23:51.409Z,146
2018-11-05T00:24:03.837Z,90
2018-11-05T00:24:16.244Z,90
2018-11-05T00:24:28.666Z,90
2018-11-05T00:24:41.848Z,90
2018-11-05T00:24:54.275Z,90
2018-11-05T00:25:06.791Z,157
2018-11-05T00:25:19.187Z,157
2018-11-05T00:25:31.593Z,153
2018-11-05T00:25:43.994Z,116
2018-11-05T00:25:56.396Z,110
2018-11-05T00:26:08.834Z,129
2018-11-05T00:26:21.248Z,130
2018-11-05T00:26:33.632Z,134
2018-11-05T00:26:46.092Z,134
2018-11-05T00:26:58.528Z,134
2018-11-05T00:27:10.912Z,134
2018-11-05T00:27:23.311Z,101
2018-11-05T00:27:35.741Z,93
2018-11-05T00:27:48.616Z,93
2018-11-05T00:28:01.167Z,128
2018-11-05T00:28:13.962Z,153
2018-11-05T00:28:26.437Z,111
2018-11-05T00:28:38.900Z,123
2018-11-05T00:28:51.378Z,132
2018-11-05T00:29:03.876Z,149
2018-11-05T00:29:16.466Z,126
2018-11-05T00:29:28.865Z,121
2018-11-05T00:29:41.303Z,105
2018-11-05T00:29:53.743Z,116
2018-11-05T00:30:06.182Z,120
2018-11-05T00:30:18.621Z,123
2018-11-05T00:30:31.106Z,124
2018-11-05T00:30:43.593Z,124
2018-11-05T00:30:56.080Z,124
2018-11-05T00:31:08.518Z,124
2018-11-05T00:31:20.992Z,124
2018-11-05T00:31:33.414Z,124
2018-11-05T00:31:45.872Z,130
2018-11-05T00:31:58.359Z,130
2018-11-05T00:32:10.774Z,124
2018-11-05T00:32:23.185Z,124
2018-11-05T00:32:35.785Z,124
2018-11-05T00:32:48.283Z,124
2018-11-05T00:33:00.853Z,124
2018-11-05T00:33:13.280Z,124
2018-11-05T00:33:25.717Z,124
2018-11-05T00:33:38.245Z,124
2018-11-05T00:33:50.713Z,124
2018-11-05T00:34:03.143Z,124
2018-11-05T00:34:15.573Z,124
2018-11-05T00:34:28.002Z,124
2018-11-05T00:34:40.525Z,124
2018-11-05T00:34:53.020Z,124
2018-11-05T00:35:05.493Z,124
2018-11-05T00:35:18.015Z,148
2018-11-05T00:35:30.496Z,148
2018-11-05T00:35:42.924Z,148
2018-11-05T00:35:55.385Z,148
2018-11-05T00:36:07.831Z,148
2018-11-05T00:36:20.248Z,148
2018-11-05T00:36:32.659Z,123
2018-11-05T00:36:45.055Z,130
2018-11-05T00:36:57.486Z,88
2018-11-05T00:37:09.902Z,111
2018-11-05T00:37:22.289Z,111
2018-11-05T00:37:34.733Z,106
2018-11-05T00:37:47.242Z,106
2018-11-05T00:37:59.669Z,106
2018-11-05T00:38:12.141Z,108
2018-11-05T00:38:24.623Z,108
2018-11-05T00:38:37.151Z,108
2018-11-05T00:38:49.630Z,108
2018-11-05T00:39:02.102Z,108
2018-11-05T00:39:14.587Z,116
2018-11-05T00:39:27.012Z,116
2018-11-05T00:39:39.438Z,116
2018-11-05T00:39:51.942Z,116
2018-11-05T00:40:04.381Z,115
2018-11-05T00:40:16.950Z,115
2018-11-05T00:40:29.432Z,115
2018-11-05T00:40:41.857Z,115
2018-11-05T00:40:54.250Z,115
2018-11-05T00:41:06.683Z,115
2018-11-05T00:41:19.103Z,115
2018-11-05T00:41:31.537Z,115
2018-11-05T00:41:44.012Z,136
2018-11-05T00:41:56.512Z,155
2018-11-05T00:42:08.966Z,121
2018-11-05T00:42:21.408Z,132
2018-11-05T00:42:33.992Z,126
2018-11-05T00:42:46.411Z,116
2018-11-05T00:42:58.881Z,144
2018-11-05T00:43:11.356Z,144
2018-11-05T00:43:23.853Z,136
2018-11-05T00:43:36.315Z,138
2018-11-05T00:43:48.784Z,121
2018-11-05T00:44:01.286Z,136
2018-11-05T00:44:13.743Z,136
2018-11-05T00:44:26.194Z,147
2018-11-05T00:44:38.632Z,130
2018-11-05T00:44:51.070Z,136
2018-11-05T00:45:03.782Z,144
2018-11-05T00:45:16.279Z,144
2018-11-05T00:45:29.091Z,133
2018-11-05T00:45:42.940Z,132
2018-11-05T00:45:57.163Z,99
2018-11-05T00:46:09.623Z,84
2018-11-05T00:46:22.062Z,84
2018-11-05T00:46:34.563Z,84
2018-11-05T00:46:47.005Z,84
2018-11-05T00:47:00.160Z,116
2018-11-05T00:47:13.036Z,127
2018-11-05T00:47:25.583Z,138
2018-11-05T00:47:38.023Z,137
2018-11-05T00:47:50.513Z,142
2018-11-05T00:48:03.038Z,142
2018-11-05T00:48:15.543Z,146
2018-11-05T00:48:27.980Z,146
2018-11-05T00:48:40.386Z,146
2018-11-05T00:48:52.882Z,147
2018-11-05T00:49:05.340Z,126
2018-11-05T00:49:17.810Z,134
2018-11-05T00:49:30.269Z,148
2018-11-05T00:49:42.877Z,143
2018-11-05T00:49:55.406Z,126
2018-11-05T00:50:07.811Z,136
2018-11-05T00:50:20.234Z,156
2018-11-05T00:50:32.705Z,126
2018-11-05T00:50:45.195Z,136
2018-11-05T00:50:57.654Z,138
2018-11-05T00:51:10.159Z,121
2018-11-05T00:51:22.629Z,123
2018-11-05T00:51:35.111Z,123
2018-11-05T00:51:47.727Z,123
2018-11-05T00:52:00.121Z,123
2018-11-05T00:52:12.592Z,126
2018-11-05T00:52:25.291Z,144
2018-11-05T00:52:37.757Z,147
2018-11-05T00:52:50.205Z,133
2018-11-05T00:53:02.674Z,144
2018-11-05T00:53:15.097Z,130
2018-11-05T00:53:27.556Z,130
2018-11-05T00:53:40.086Z,131
2018-11-05T00:53:52.550Z,131
2018-11-05T00:54:04.961Z,130
2018-11-05T00:54:17.518Z,130
2018-11-05T00:54:30.047Z,144
2018-11-05T00:54:42.504Z,145
2018-11-05T00:54:54.904Z,144
2018-11-05T00:55:07.306Z,144
2018-11-05T00:55:19.706Z,144
2018-11-05T00:55:32.386Z,144
2018-11-05T00:55:45.351Z,96
2018-11-05T00:55:58.039Z,87
2018-11-05T00:56:10.745Z,90
2018-11-05T00:56:24.333Z,178
2018-11-05T00:56:37.299Z,100
2018-11-05T00:56:50.018Z,84
2018-11-05T00:57:02.571Z,84
2018-11-05T00:57:15.034Z,151
2018-11-05T00:57:27.521Z,151
2018-11-05T00:57:39.945Z,151
2018-11-05T00:57:52.401Z,151
2018-11-05T00:58:04.862Z,151
2018-11-05T00:58:17.327Z,151
2018-11-05T00:58:30.293Z,151
2018-11-05T00:58:42.776Z,151
2018-11-05T00:58:55.331Z,119
2018-11-05T00:59:07.805Z,149
2018-11-05T00:59:20.293Z,146
2018-11-05T00:59:32.758Z,149
2018-11-05T00:59:45.220Z,126
2018-11-05T00:59:57.681Z,126
2018-11-05T01:00:10.212Z,108
2018-11-05T01:00:22.714Z,128
2018-11-05T01:00:35.188Z,130
2018-11-05T01:00:47.855Z,113
2018-11-05T01:01:00.306Z,132
2018-11-05T01:01:12.841Z,144
2018-11-05T01:01:25.342Z,144
2018-11-05T01:01:38.278Z,144
2018-11-05T01:01:51.497Z,77
2018-11-05T01:02:04.030Z,94
2018-11-05T01:02:17.508Z,104
2018-11-05T01:02:30.172Z,115
2018-11-05T01:02:42.690Z,148
2018-11-05T01:02:55.192Z,131
2018-11-05T01:03:07.754Z,111
2018-11-05T01:03:20.248Z,149
2018-11-05T01:03:32.648Z,80
2018-11-05T01:03:45.074Z,107
2018-11-05T01:03:57.486Z,59
2018-11-05T01:04:10.589Z,61
2018-11-05T01:04:23.143Z,126
2018-11-05T01:04:35.642Z,129
2018-11-05T01:04:48.250Z,140
2018-11-05T01:05:00.659Z,80
2018-11-05T01:05:13.134Z,95
2018-11-05T01:05:25.620Z,155
2018-11-05T01:05:38.037Z,128
2018-11-05T01:05:50.508Z,101
2018-11-05T01:06:02.991Z,106
2018-11-05T01:06:15.475Z,106
2018-11-05T01:06:28.163Z,131
2018-11-05T01:06:40.627Z,131
2018-11-05T01:06:53.080Z,137
2018-11-05T01:07:05.474Z,146
2018-11-05T01:07:18.025Z,111
2018-11-05T01:07:30.444Z,136
2018-11-05T01:07:42.897Z,142
2018-11-05T01:07:55.335Z,144
2018-11-05T01:08:07.784Z,144
2018-11-05T01:08:20.288Z,127
2018-11-05T01:08:32.779Z,141
2018-11-05T01:08:45.268Z,130
2018-11-05T01:08:57.898Z,144
2018-11-05T01:09:10.389Z,145
2018-11-05T01:09:22.836Z,151
2018-11-05T01:09:35.326Z,153
2018-11-05T01:09:47.799Z,153
2018-11-05T01:10:00.269Z,153
2018-11-05T01:10:12.719Z,153
2018-11-05T01:10:25.127Z,153
2018-11-05T01:10:37.575Z,153
2018-11-05T01:10:49.971Z,102
2018-11-05T01:11:02.376Z,92
2018-11-05T01:11:14.861Z,92
2018-11-05T01:11:27.269Z,123
2018-11-05T01:11:39.709Z,123
2018-11-05T01:11:52.130Z,119
2018-11-05T01:12:04.524Z,105
2018-11-05T01:12:16.960Z,105
2018-11-05T01:12:29.457Z,105
2018-11-05T01:12:41.926Z,130
2018-11-05T01:12:54.414Z,130
2018-11-05T01:13:06.897Z,130
2018-11-05T01:13:19.367Z,130
2018-11-05T01:13:31.879Z,136
2018-11-05T01:13:44.273Z,148
2018-11-05T01:13:56.870Z,131
2018-11-05T01:14:09.329Z,131
2018-11-05T01:14:21.750Z,131
2018-11-05T01:14:34.271Z,131
2018-11-05T01:14:46.780Z,131
2018-11-05T01:14:59.169Z,131
2018-11-05T01:15:11.596Z,131
2018-11-05T01:15:24.219Z,131
2018-11-05T01:15:36.669Z,131
2018-11-05T01:15:49.340Z,134
2018-11-05T01:16:01.794Z,134
2018-11-05T01:16:14.264Z,134
2018-11-05T01:16:26.751Z,151
2018-11-05T01:16:39.183Z,140
2018-11-05T01:16:51.585Z,140
2018-11-05T01:17:04.020Z,141
2018-11-05T01:17:16.417Z,143
2018-11-05T01:17:28.819Z,132
2018-11-05T01:17:41.221Z,146
2018-11-05T01:17:53.650Z,119
2018-11-05T01:18:06.070Z,113
2018-11-05T01:18:18.756Z,75
2018-11-05T01:18:31.160Z,84
2018-11-05T01:18:43.579Z,82
2018-11-05T01:18:56.004Z,82
2018-11-05T01:19:08.415Z,133
2018-11-05T01:19:20.870Z,134
2018-11-05T01:19:33.291Z,134
2018-11-05T01:19:45.782Z,134
2018-11-05T01:19:58.261Z,134
2018-11-05T01:20:10.726Z,146
2018-11-05T01:20:23.158Z,146
2018-11-05T01:20:35.597Z,134
2018-11-05T01:20:48.086Z,105
2018-11-05T01:21:00.491Z,87
2018-11-05T01:21:12.892Z,87
2018-11-05T01:21:25.327Z,87
2018-11-05T01:21:37.769Z,87
2018-11-05T01:21:50.231Z,87
2018-11-05T01:22:02.655Z,87
2018-11-05T01:22:15.166Z,87
2018-11-05T01:22:27.565Z,87
2018-11-05T01:22:39.984Z,87
2018-11-05T01:22:52.385Z,87
2018-11-05T01:23:04.827Z,87
2018-11-05T01:23:17.563Z,87
2018-11-05T01:23:29.973Z,115
2018-11-05T01:23:42.539Z,115
2018-11-05T01:23:54.945Z,115
2018-11-05T01:24:07.360Z,129
2018-11-05T01:24:19.868Z,133
2018-11-05T01:24:32.434Z,136
2018-11-05T01:24:44.903Z,96
2018-11-05T01:24:57.342Z,115
2018-11-05T01:25:09.901Z,130
2018-11-05T01:25:22.338Z,140
2018-11-05T01:25:34.725Z,124
2018-11-05T01:25:47.166Z,46
2018-11-05T01:25:59.593Z,46
2018-11-05T01:26:12.144Z,53
2018-11-05T01:26:24.563Z,53
2018-11-05T01:26:37.054Z,55
2018-11-05T01:26:49.532Z,55
2018-11-05T01:27:01.978Z,71
2018-11-05T01:27:14.385Z,73
2018-11-05T01:27:26.871Z,74
2018-11-05T01:27:39.327Z,86
2018-11-05T01:27:51.836Z,150
2018-11-05T01:28:04.396Z,149
2018-11-05T01:28:17.047Z,132
2018-11-05T01:28:29.492Z,121
2018-11-05T01:28:41.891Z,132
2018-11-05T01:28:54.353Z,129
2018-11-05T01:29:06.800Z,114
2018-11-05T01:29:19.296Z,114
2018-11-05T01:29:31.758Z,114
2018-11-05T01:29:44.232Z,115
2018-11-05T01:29:56.641Z,115
2018-11-05T01:30:09.194Z,115
2018-11-05T01:30:21.672Z,114
2018-11-05T01:30:34.131Z,114
2018-11-05T01:30:46.629Z,114
2018-11-05T01:30:59.130Z,115
2018-11-05T01:31:11.549Z,114
2018-11-05T01:31:24.030Z,114
2018-11-05T01:31:36.508Z,115
2018-11-05T01:31:48.964Z,130
2018-11-05T01:32:01.499Z,132
2018-11-05T01:32:13.968Z,132
2018-11-05T01:32:26.442Z,132
2018-11-05T01:32:38.856Z,135
2018-11-05T01:32:51.293Z,138
2018-11-05T01:33:03.952Z,138
2018-11-05T01:33:16.403Z,138
2018-11-05T01:33:28.881Z,138
2018-11-05T01:33:41.336Z,138
2018-11-05T01:33:53.771Z,138
2018-11-05T01:34:06.204Z,148
2018-11-05T01:34:18.691Z,161
2018-11-05T01:34:31.102Z,128
2018-11-05T01:34:43.571Z,145
2018-11-05T01:34:56.016Z,137
2018-11-05T01:35:08.433Z,134
2018-11-05T01:35:20.860Z,156
2018-11-05T01:35:33.309Z,131
2018-11-05T01:35:45.746Z,128
2018-11-05T01:35:58.228Z,26
2018-11-05T01:36:10.713Z,34
2018-11-05T01:36:23.224Z,279
2018-11-05T01:36:35.652Z,263
2018-11-05T01:36:48.042Z,154
2018-11-05T01:37:00.662Z,146
2018-11-05T01:37:14.319Z,106
2018-11-05T01:37:27.993Z,144
2018-11-05T01:37:40.496Z,136
2018-11-05T01:37:53.001Z,152
2018-11-05T01:38:05.502Z,141
2018-11-05T01:38:17.958Z,148
2018-11-05T01:38:30.498Z,148
2018-11-05T01:38:42.965Z,177
2018-11-05T01:38:55.488Z,141
2018-11-05T01:39:07.972Z,140
2018-11-05T01:39:20.381Z,143
2018-11-05T01:39:32.759Z,143
2018-11-05T01:39:45.136Z,143
2018-11-05T01:39:57.529Z,119
2018-11-05T01:40:10.080Z,119
2018-11-05T01:40:22.581Z,119
2018-11-05T01:40:35.048Z,119
2018-11-05T01:40:47.467Z,119
2018-11-05T01:40:59.922Z,119
2018-11-05T01:41:12.389Z,119
2018-11-05T01:41:24.886Z,119
2018-11-05T01:41:37.346Z,119
2018-11-05T01:41:49.817Z,119
2018-11-05T01:42:02.295Z,119
2018-11-05T01:42:14.820Z,119
2018-11-05T01:42:27.291Z,126
2018-11-05T01:42:39.796Z,126
2018-11-05T01:42:52.290Z,126
2018-11-05T01:43:04.753Z,126
2018-11-05T01:43:17.186Z,124
2018-11-05T01:43:29.649Z,124
2018-11-05T01:43:42.153Z,115
2018-11-05T01:43:54.615Z,121
2018-11-05T01:44:07.064Z,163
2018-11-05T01:44:19.496Z,135
2018-11-05T01:44:31.889Z,136
2018-11-05T01:44:44.365Z,136
2018-11-05T01:44:56.857Z,136
2018-11-05T01:45:09.407Z,136
2018-11-05T01:45:21.834Z,136
2018-11-05T01:45:34.272Z,132
2018-11-05T01:45:46.727Z,108
2018-11-05T01:45:59.187Z,109
2018-11-05T01:46:11.649Z,107
2018-11-05T01:46:24.226Z,139
2018-11-05T01:46:36.687Z,140
2018-11-05T01:46:49.318Z,140
2018-11-05T01:47:01.783Z,128
2018-11-05T01:47:14.292Z,123
2018-11-05T01:47:26.860Z,138
2018-11-05T01:47:39.306Z,129
2018-11-05T01:47:51.766Z,109
2018-11-05T01:48:04.249Z,109
2018-11-05T01:48:16.626Z,109
2018-11-05T01:48:29.040Z,109
2018-11-05T01:48:41.438Z,150
2018-11-05T01:48:53.848Z,150
2018-11-05T01:49:06.315Z,140
2018-11-05T01:49:18.777Z,150
2018-11-05T01:49:31.239Z,132
2018-11-05T01:49:43.855Z,134
2018-11-05T01:49:56.271Z,136
2018-11-05T01:50:08.692Z,136
2018-11-05T01:50:21.167Z,126
2018-11-05T01:50:33.612Z,151
2018-11-05T01:50:46.092Z,151
2018-11-05T01:50:58.521Z,151
2018-11-05T01:51:10.921Z,151
2018-11-05T01:51:23.326Z,151
2018-11-05T01:51:35.800Z,151
2018-11-05T01:51:48.373Z,150
2018-11-05T01:52:00.912Z,181
2018-11-05T01:52:13.468Z,151
2018-11-05T01:52:25.936Z,142
2018-11-05T01:52:38.330Z,142
2018-11-05T01:52:50.744Z,141
2018-11-05T01:53:03.205Z,177
2018-11-05T01:53:15.680Z,169
2018-11-05T01:53:28.180Z,157
2018-11-05T01:53:40.699Z,157
2018-11-05T01:53:53.309Z,138
2018-11-05T01:54:05.713Z,130
2018-11-05T01:54:18.192Z,133
2018-11-05T01:54:30.667Z,133
2018-11-05T01:54:43.117Z,133
2018-11-05T01:54:55.538Z,133
2018-11-05T01:55:07.963Z,133
2018-11-05T01:55:20.384Z,142
2018-11-05T01:55:32.789Z,141
2018-11-05T01:55:45.216Z,141
2018-11-05T01:55:57.909Z,141
2018-11-05T01:56:10.527Z,141
2018-11-05T01:56:22.996Z,40
2018-11-05T01:56:35.644Z,16
2018-11-05T01:56:48.152Z,16
2018-11-05T01:57:00.570Z,16
2018-11-05T01:57:13.059Z,16
2018-11-05T01:57:25.532Z,16
2018-11-05T01:57:37.939Z,16
2018-11-05T01:57:50.426Z,16
2018-11-05T01:58:02.896Z,16
2018-11-05T01:58:15.306Z,16
2018-11-05T01:58:27.722Z,16
2018-11-05T01:58:40.123Z,42
2018-11-05T01:58:52.530Z,155
2018-11-05T01:59:04.913Z,163
2018-11-05T01:59:17.302Z,137
2018-11-05T01:59:29.710Z,172
2018-11-05T01:59:42.447Z,141
2018-11-05T01:59:54.904Z,141
2018-11-05T02:00:07.387Z,148
2018-11-05T02:00:19.863Z,171
2018-11-05T02:00:32.336Z,171
2018-11-05T02:00:44.862Z,169
2018-11-05T02:00:57.374Z,157
2018-11-05T02:01:09.929Z,157
2018-11-05T02:01:22.434Z,157
2018-11-05T02:01:34.892Z,156
2018-11-05T02:01:47.290Z,157
2018-11-05T02:01:59.763Z,157
2018-11-05T02:02:12.257Z,157
2018-11-05T02:02:24.698Z,157
2018-11-05T02:02:37.211Z,157
2018-11-05T02:02:49.708Z,157
2018-11-05T02:03:02.170Z,157
2018-11-05T02:03:14.637Z,157
2018-11-05T02:03:27.145Z,157
2018-11-05T02:03:39.620Z,156
2018-11-05T02:03:52.070Z,143
2018-11-05T02:04:04.555Z,140
2018-11-05T02:04:16.968Z,131
2018-11-05T02:04:29.365Z,54
2018-11-05T02:04:41.911Z,70
2018-11-05T02:04:54.383Z,182
2018-11-05T02:05:06.855Z,182
2018-11-05T02:05:19.324Z,179
2018-11-05T02:05:31.814Z,159
2018-11-05T02:05:44.278Z,159
2018-11-05T02:05:56.773Z,159
2018-11-05T02:06:09.246Z,158
2018-11-05T02:06:21.739Z,155
2018-11-05T02:06:34.205Z,36
2018-11-05T02:06:46.636Z,84
2018-11-05T02:06:59.076Z,92
2018-11-05T02:07:11.603Z,96
2018-11-05T02:07:24.040Z,90
2018-11-05T02:07:36.506Z,152
2018-11-05T02:07:48.963Z,145
2018-11-05T02:08:01.545Z,117
2018-11-05T02:08:14.011Z,126
2018-11-05T02:08:26.634Z,144
2018-11-05T02:08:39.085Z,143
2018-11-05T02:08:51.540Z,143
2018-11-05T02:09:04.114Z,143
2018-11-05T02:09:16.599Z,144
2018-11-05T02:09:29.069Z,144
2018-11-05T02:09:41.506Z,105
2018-11-05T02:09:53.895Z,86
2018-11-05T02:10:06.540Z,86
2018-11-05T02:10:20.195Z,86
2018-11-05T02:10:34.312Z,86
2018-11-05T02:10:46.726Z,86
2018-11-05T02:10:59.129Z,86
2018-11-05T02:11:11.554Z,86
2018-11-05T02:11:24.097Z,86
2018-11-05T02:11:36.534Z,86
2018-11-05T02:11:48.928Z,86
2018-11-05T02:12:01.347Z,86
2018-11-05T02:12:13.727Z,86
2018-11-05T02:12:26.120Z,86
2018-11-05T02:12:38.572Z,86
2018-11-05T02:12:51.049Z,86
2018-11-05T02:13:03.536Z,86
2018-11-05T02:13:16.849Z,86
2018-11-05T02:13:30.841Z,86
2018-11-05T02:13:43.878Z,86
2018-11-05T02:13:56.508Z,86
2018-11-05T02:14:08.975Z,86
2018-11-05T02:14:21.371Z,86
2018-11-05T02:14:33.774Z,86
2018-11-05T02:14:46.289Z,86
2018-11-05T02:14:58.749Z,86
2018-11-05T02:15:11.189Z,86
2018-11-05T02:15:23.777Z,86
2018-11-05T02:15:36.248Z,86
2018-11-05T02:15:48.863Z,86
2018-11-05T02:16:01.950Z,86
2018-11-05T02:16:16.381Z,86
2018-11-05T02:16:28.771Z,86
2018-11-05T02:16:41.190Z,86
2018-11-05T02:16:53.613Z,86
2018-11-05T02:17:06.093Z,86
2018-11-05T02:17:18.542Z,112
2018-11-05T02:17:30.947Z,150
2018-11-05T02:17:43.422Z,148
2018-11-05T02:17:55.838Z,148
2018-11-05T02:18:08.252Z,113
2018-11-05T02:18:20.980Z,128
2018-11-05T02:18:33.464Z,132
2018-11-05T02:18:45.912Z,124
2018-11-05T02:18:58.375Z,138
2018-11-05T02:19:10.780Z,138
2018-11-05T02:19:23.174Z,73
2018-11-05T02:19:35.613Z,36
2018-11-05T02:19:48.036Z,146
2018-11-05T02:20:00.471Z,119
2018-11-05T02:20:12.929Z,150
2018-11-05T02:20:25.453Z,134
2018-11-05T02:20:37.879Z,161
2018-11-05T02:20:50.364Z,172
2018-11-05T02:21:02.871Z,163
2018-11-05T02:21:15.302Z,150
2018-11-05T02:21:27.780Z,130
2018-11-05T02:21:40.234Z,131
2018-11-05T02:21:52.642Z,117
2018-11-05T02:22:05.041Z,126
2018-11-05T02:22:17.586Z,153
2018-11-05T02:22:30.004Z,134
2018-11-05T02:22:42.476Z,157
2018-11-05T02:22:54.946Z,157
2018-11-05T02:23:07.383Z,155
2018-11-05T02:23:19.833Z,155
2018-11-05T02:23:32.304Z,155
2018-11-05T02:23:44.756Z,155
2018-11-05T02:23:57.196Z,150
2018-11-05T02:24:09.710Z,80
2018-11-05T02:24:22.099Z,71
2018-11-05T02:24:34.619Z,71
2018-11-05T02:24:47.116Z,71
2018-11-05T02:24:59.591Z,79
2018-11-05T02:25:12.135Z,79
2018-11-05T02:25:24.617Z,107
2018-11-05T02:25:37.092Z,115
2018-11-05T02:25:49.530Z,115
2018-11-05T02:26:02.011Z,168
2018-11-05T02:26:14.592Z,168
2018-11-05T02:26:26.982Z,168
2018-11-05T02:26:39.399Z,134
2018-11-05T02:26:51.837Z,134
2018-11-05T02:27:04.560Z,134
2018-11-05T02:27:18.518Z,134
2018-11-05T02:27:32.291Z,134
2018-11-05T02:27:44.797Z,134
2018-11-05T02:27:57.445Z,134
2018-11-05T02:28:09.870Z,134
2018-11-05T02:28:22.372Z,134
2018-11-05T02:28:34.814Z,134
2018-11-05T02:28:47.215Z,134
2018-11-05T02:28:59.617Z,134
2018-11-05T02:29:12.037Z,115
2018-11-05T02:29:24.431Z,94
2018-11-05T02:29:36.845Z,94
2018-11-05T02:29:49.270Z,96
2018-11-05T02:30:01.725Z,118
2018-11-05T02:30:14.166Z,135
2018-11-05T02:30:26.679Z,145
2018-11-05T02:30:39.240Z,145
2018-11-05T02:30:51.751Z,145
2018-11-05T02:31:04.310Z,145
2018-11-05T02:31:16.848Z,145
2018-11-05T02:31:29.367Z,145
2018-11-05T02:31:41.887Z,173
2018-11-05T02:31:54.347Z,173
2018-11-05T02:32:06.806Z,173
2018-11-05T02:32:19.335Z,173
2018-11-05T02:32:31.800Z,173
2018-11-05T02:32:44.283Z,73
2018-11-05T02:32:56.777Z,129
2018-11-05T02:33:09.313Z,130
2018-11-05T02:33:21.799Z,130
2018-11-05T02:33:34.278Z,130
2018-11-05T02:33:46.829Z,130
2018-11-05T02:33:59.253Z,130
2018-11-05T02:34:11.736Z,108
2018-11-05T02:34:24.239Z,105
2018-11-05T02:34:36.679Z,105
2018-11-05T02:34:49.102Z,105
2018-11-05T02:35:01.573Z,105
2018-11-05T02:35:13.971Z,105
2018-11-05T02:35:26.437Z,105
2018-11-05T02:35:38.876Z,130
2018-11-05T02:35:51.377Z,147
2018-11-05T02:36:03.866Z,142
2018-11-05T02:36:16.323Z,150
2018-11-05T02:36:28.729Z,152
2018-11-05T02:36:41.167Z,105
2018-11-05T02:36:53.598Z,92
2018-11-05T02:37:06.001Z,67
2018-11-05T02:37:18.415Z,69
2018-11-05T02:37:30.833Z,69
2018-11-05T02:37:43.381Z,45
2018-11-05T02:37:56.133Z,78
2018-11-05T02:38:08.647Z,143
2018-11-05T02:38:21.143Z,143
2018-11-05T02:38:33.739Z,143
2018-11-05T02:38:46.163Z,142
2018-11-05T02:38:58.574Z,141
2018-11-05T02:39:10.988Z,138
2018-11-05T02:39:23.421Z,104
2018-11-05T02:39:35.856Z,123
2018-11-05T02:39:48.280Z,137
2018-11-05T02:40:00.742Z,165
2018-11-05T02:40:13.196Z,132
2018-11-05T02:40:25.684Z,145
2018-11-05T02:40:38.106Z,154
2018-11-05T02:40:50.565Z,153
2018-11-05T02:41:03.004Z,150
2018-11-05T02:41:15.406Z,150
2018-11-05T02:41:27.821Z,149
2018-11-05T02:41:40.322Z,144
2018-11-05T02:41:52.917Z,153
2018-11-05T02:42:05.355Z,143
2018-11-05T02:42:17.831Z,146
2018-11-05T02:42:30.269Z,154
2018-11-05T02:42:42.686Z,142
2018-11-05T02:42:55.215Z,138
2018-11-05T02:43:07.690Z,138
2018-11-05T02:43:20.200Z,138
2018-11-05T02:43:32.708Z,138
2018-11-05T02:43:45.257Z,138
2018-11-05T02:43:57.721Z,138
2018-11-05T02:44:10.193Z,138
2018-11-05T02:44:22.678Z,149
2018-11-05T02:44:35.159Z,149
2018-11-05T02:44:47.656Z,98
2018-11-05T02:45:00.208Z,105
2018-11-05T02:45:12.693Z,146
2018-11-05T02:45:25.278Z,146
2018-11-05T02:45:37.710Z,146
2018-11-05T02:45:50.185Z,146
2018-11-05T02:46:02.691Z,146
2018-11-05T02:46:15.185Z,154
2018-11-05T02:46:27.668Z,126
2018-11-05T02:46:40.142Z,80
2018-11-05T02:46:52.734Z,115
2018-11-05T02:47:05.264Z,160
2018-11-05T02:47:17.724Z,158
2018-11-05T02:47:30.288Z,123
2018-11-05T02:47:42.706Z,119
2018-11-05T02:47:55.110Z,113
2018-11-05T02:48:07.621Z,114
2018-11-05T02:48:20.058Z,114
2018-11-05T02:48:32.477Z,115
2018-11-05T02:48:44.920Z,165
2018-11-05T02:48:57.311Z,131
2018-11-05T02:49:09.776Z,138
2018-11-05T02:49:22.254Z,123
2018-11-05T02:49:34.706Z,184
2018-11-05T02:49:47.278Z,164
2018-11-05T02:49:59.774Z,140
2018-11-05T02:50:12.346Z,140
2018-11-05T02:50:24.837Z,93
2018-11-05T02:50:37.253Z,162
2018-11-05T02:50:49.705Z,146
2018-11-05T02:51:02.162Z,152
2018-11-05T02:51:14.640Z,131
2018-11-05T02:51:27.188Z,131
2018-11-05T02:51:39.701Z,131
2018-11-05T02:51:52.222Z,101
2018-11-05T02:52:04.770Z,106
2018-11-05T02:52:17.394Z,94
2018-11-05T02:52:29.897Z,94
2018-11-05T02:52:42.366Z,94
2018-11-05T02:52:54.919Z,94
2018-11-05T02:53:07.418Z,176
2018-11-05T02:53:19.866Z,184